createdAt,value
2022-11-29T00:00:46.723Z,21.63
2022-11-29T00:03:14.929Z,20.85
2022-11-29T00:05:41.971Z,21.98
2022-11-29T00:08:08.765Z,21.90
2022-11-29T00:10:38.613Z,20.50
2022-11-29T00:13:05.731Z,21.75
2022-11-29T00:15:36.634Z,20.55
2022-11-29T00:18:04.049Z,19.90
2022-11-29T00:20:31.287Z,21.27
2022-11-29T00:22:58.353Z,20.77
2022-11-29T00:25:25.271Z,20.05
2022-11-29T00:27:52.295Z,20.55
2022-11-29T00:30:20.366Z,19.95
2022-11-29T00:32:47.404Z,20.63
2022-11-29T00:35:14.487Z,21.52
2022-11-29T00:37:41.238Z,21.20
2022-11-29T00:40:08.607Z,20.15
2022-11-29T00:42:35.399Z,20.08
2022-11-29T00:45:02.123Z,20.42
2022-11-29T00:47:28.983Z,20.60
2022-11-29T00:49:56.011Z,20.55
2022-11-29T00:52:22.757Z,19.88
2022-11-29T00:54:49.407Z,20.05
2022-11-29T00:57:16.342Z,20.00
2022-11-29T00:59:43.067Z,22.13
2022-11-29T01:02:09.887Z,20.40
2022-11-29T01:04:36.738Z,20.42
2022-11-29T01:07:03.583Z,21.13
2022-11-29T01:09:30.279Z,20.60
2022-11-29T01:11:57.158Z,21.08
2022-11-29T01:14:23.915Z,20.77
2022-11-29T01:16:50.693Z,20.55
2022-11-29T01:19:17.778Z,20.23
2022-11-29T01:21:44.497Z,19.52
2022-11-29T01:24:11.285Z,21.50
2022-11-29T01:26:38.267Z,20.73
2022-11-29T01:29:04.950Z,20.92
2022-11-29T01:31:36.322Z,20.58
2022-11-29T01:34:04.674Z,19.85
2022-11-29T01:36:31.952Z,20.77
2022-11-29T01:38:59.855Z,19.27
2022-11-29T01:41:29.599Z,21.20
2022-11-29T01:44:14.401Z,20.48
2022-11-29T01:46:46.316Z,19.25
2022-11-29T01:49:24.173Z,20.70
2022-11-29T01:51:54.333Z,19.77
2022-11-29T01:54:21.730Z,19.70
2022-11-29T01:56:50.460Z,19.77
2022-11-29T01:59:21.853Z,20.23
2022-11-29T02:01:48.639Z,22.23
2022-11-29T02:04:16.149Z,21.10
2022-11-29T02:06:43.467Z,20.63
2022-11-29T02:09:21.796Z,20.45
2022-11-29T02:12:03.974Z,20.23
2022-11-29T02:14:46.213Z,20.85
2022-11-29T02:17:55.748Z,20.98
2022-11-29T02:20:28.542Z,21.52
2022-11-29T02:23:07.276Z,21.17
2022-11-29T02:25:48.742Z,20.75
2022-11-29T02:28:50.294Z,21.30
2022-11-29T02:31:45.072Z,20.42
2022-11-29T02:34:30.570Z,21.20
2022-11-29T02:37:18.794Z,20.45
2022-11-29T02:40:04.425Z,20.38
2022-11-29T02:42:55.658Z,20.70
2022-11-29T02:45:35.311Z,20.13
2022-11-29T02:48:14.022Z,20.85
2022-11-29T02:51:02.872Z,19.77
2022-11-29T02:53:48.455Z,20.35
2022-11-29T02:56:29.247Z,20.88
2022-11-29T02:58:55.931Z,20.48
2022-11-29T03:01:44.547Z,20.15
2022-11-29T03:04:40.792Z,21.23
2022-11-29T03:07:28.377Z,20.35
2022-11-29T03:10:03.639Z,19.80
2022-11-29T03:12:46.342Z,21.42
2022-11-29T03:15:28.305Z,19.95
2022-11-29T03:18:16.361Z,21.25
2022-11-29T03:21:01.306Z,21.65
2022-11-29T03:23:31.161Z,21.75
2022-11-29T03:26:08.491Z,21.98
2022-11-29T03:28:53.384Z,22.63
2022-11-29T03:31:35.944Z,21.92
2022-11-29T03:34:27.104Z,23.00
2022-11-29T03:36:59.646Z,22.45
2022-11-29T03:39:53.250Z,23.00
2022-11-29T03:42:26.627Z,23.20
2022-11-29T03:45:22.273Z,21.48
2022-11-29T03:47:56.686Z,23.70
2022-11-29T03:50:43.335Z,22.05
2022-11-29T03:53:23.742Z,23.33
2022-11-29T03:55:59.342Z,20.92
2022-11-29T04:01:26.717Z,21.42
2022-11-29T04:04:11.491Z,23.10
2022-11-29T04:07:04.006Z,22.52
2022-11-29T04:10:01.502Z,23.02
2022-11-29T04:12:53.725Z,22.75
2022-11-29T04:15:26.256Z,22.95
2022-11-29T04:18:06.015Z,22.65
2022-11-29T04:20:41.232Z,23.30
2022-11-29T04:23:42.180Z,23.20
2022-11-29T04:26:36.481Z,22.85
2022-11-29T04:29:15.386Z,23.02
2022-11-29T04:32:18.870Z,23.05
2022-11-29T04:34:48.719Z,23.13
2022-11-29T04:37:43.347Z,22.92
2022-11-29T04:40:26.299Z,22.70
2022-11-29T04:43:15.343Z,21.85
2022-11-29T04:45:54.333Z,23.30
2022-11-29T04:48:52.305Z,23.00
2022-11-29T04:51:32.621Z,21.40
2022-11-29T04:54:32.215Z,22.35
2022-11-29T04:57:15.611Z,22.45
2022-11-29T05:00:02.438Z,21.15
2022-11-29T05:02:29.227Z,23.10
2022-11-29T05:05:08.016Z,21.70
2022-11-29T05:07:58.890Z,21.55
2022-11-29T05:10:47.558Z,22.05
2022-11-29T05:13:48.156Z,22.40
2022-11-29T05:16:38.920Z,20.65
2022-11-29T05:19:33.780Z,22.10
2022-11-29T05:22:27.862Z,21.17
2022-11-29T05:25:36.703Z,21.23
2022-11-29T05:28:10.421Z,22.10
2022-11-29T05:31:00.313Z,21.88
2022-11-29T05:33:30.126Z,21.48
2022-11-29T05:36:21.878Z,22.92
2022-11-29T05:39:01.336Z,22.05
2022-11-29T05:41:58.906Z,23.05
2022-11-29T05:44:46.468Z,22.67
2022-11-29T05:47:23.097Z,23.38
2022-11-29T05:50:09.127Z,21.52
2022-11-29T05:52:56.284Z,23.10
2022-11-29T05:55:44.722Z,22.65
2022-11-29T05:58:49.878Z,22.02
2022-11-29T06:01:34.743Z,23.48
2022-11-29T06:04:14.437Z,21.85
2022-11-29T06:07:12.767Z,21.60
2022-11-29T06:09:49.945Z,21.70
2022-11-29T06:12:21.467Z,22.50
2022-11-29T06:15:11.849Z,21.90
2022-11-29T06:17:57.067Z,21.27
2022-11-29T06:20:39.846Z,20.20
2022-11-29T06:23:29.085Z,19.52
2022-11-29T06:26:16.917Z,19.83
2022-11-29T06:28:57.443Z,19.48
2022-11-29T06:31:32.429Z,18.83
2022-11-29T06:34:09.824Z,20.17
2022-11-29T06:36:50.666Z,18.95
2022-11-29T06:39:17.692Z,20.45
2022-11-29T06:41:44.420Z,19.75
2022-11-29T06:44:12.872Z,19.85
2022-11-29T06:46:47.476Z,21.08
2022-11-29T06:49:20.178Z,20.52
2022-11-29T06:52:03.612Z,21.02
2022-11-29T06:55:06.136Z,21.23
2022-11-29T06:58:07.559Z,21.63
2022-11-29T07:00:45.527Z,20.58
2022-11-29T07:03:34.086Z,22.08
2022-11-29T07:06:10.255Z,21.48
2022-11-29T07:08:37.775Z,21.05
2022-11-29T07:11:04.667Z,21.58
2022-11-29T07:13:31.935Z,21.48
2022-11-29T07:16:04.776Z,22.52
2022-11-29T07:18:53.215Z,20.85
2022-11-29T07:21:33.452Z,21.08
2022-11-29T07:24:17.598Z,20.52
2022-11-29T07:27:11.338Z,20.90
2022-11-29T07:30:08.560Z,21.65
2022-11-29T07:32:58.731Z,22.52
2022-11-29T07:35:33.142Z,21.60
2022-11-29T07:38:08.194Z,21.83
2022-11-29T07:41:06.828Z,21.70
2022-11-29T07:43:59.937Z,22.08
2022-11-29T07:46:28.533Z,21.60
2022-11-29T07:48:55.464Z,22.73
2022-11-29T07:51:22.345Z,22.20
2022-11-29T07:53:49.227Z,22.27
2022-11-29T07:56:16.372Z,22.70
2022-11-29T07:58:43.233Z,22.67
2022-11-29T08:01:10.010Z,23.38
2022-11-29T08:03:36.793Z,21.25
2022-11-29T08:06:03.819Z,23.00
2022-11-29T08:08:30.595Z,23.48
2022-11-29T08:10:57.298Z,22.20
2022-11-29T08:13:24.111Z,22.70
2022-11-29T08:15:51.103Z,22.13
2022-11-29T08:18:17.938Z,22.63
2022-11-29T08:20:46.221Z,22.92
2022-11-29T08:23:14.151Z,22.50
2022-11-29T08:25:41.319Z,24.27
2022-11-29T08:28:08.266Z,22.90
2022-11-29T08:30:35.352Z,23.50
2022-11-29T08:33:02.149Z,22.75
2022-11-29T08:35:29.340Z,23.38
2022-11-29T08:37:56.129Z,23.05
2022-11-29T08:40:24.079Z,22.85
2022-11-29T08:42:50.984Z,21.73
2022-11-29T08:45:18.141Z,23.30
2022-11-29T08:47:44.949Z,39.15
2022-11-29T08:50:17.422Z,30.50
2022-11-29T08:53:04.905Z,24.40
2022-11-29T08:55:37.167Z,21.92
2022-11-29T08:58:06.841Z,21.48
2022-11-29T09:00:34.615Z,19.50
2022-11-29T09:03:29.443Z,20.65
2022-11-29T09:05:57.457Z,19.35
2022-11-29T09:08:24.243Z,22.42
2022-11-29T09:10:51.145Z,20.35
2022-11-29T09:13:18.225Z,18.75
2022-11-29T09:15:45.161Z,18.05
2022-11-29T09:18:12.250Z,18.50
2022-11-29T09:20:43.897Z,17.35
2022-11-29T09:23:11.768Z,17.77
2022-11-29T09:25:38.880Z,18.20
2022-11-29T09:28:05.811Z,18.08
2022-11-29T09:30:34.027Z,17.63
2022-11-29T09:33:02.837Z,15.02
2022-11-29T09:35:29.875Z,16.60
2022-11-29T09:37:56.841Z,15.48
2022-11-29T09:40:31.589Z,15.90
2022-11-29T09:43:11.286Z,17.33
2022-11-29T09:45:44.278Z,15.57
2022-11-29T09:48:18.950Z,15.40
2022-11-29T09:51:11.391Z,15.88
2022-11-29T09:53:50.189Z,15.48
2022-11-29T09:56:34.353Z,15.43
2022-11-29T09:59:23.332Z,14.45
2022-11-29T10:01:55.375Z,13.18
2022-11-29T10:04:36.282Z,13.80
2022-11-29T10:07:21.699Z,12.73
2022-11-29T10:09:57.117Z,13.38
2022-11-29T10:12:35.792Z,11.82
2022-11-29T10:15:17.046Z,10.75
2022-11-29T10:18:03.133Z,10.50
2022-11-29T10:23:07.361Z,9.65
2022-11-29T10:25:37.433Z,10.63
2022-11-29T10:28:06.675Z,10.68
2022-11-29T10:30:36.334Z,11.30
2022-11-29T10:33:03.299Z,11.13
2022-11-29T10:35:30.588Z,11.70
2022-11-29T10:38:32.314Z,11.77
2022-11-29T10:40:53.042Z,12.25
2022-11-29T10:43:20.263Z,12.50
2022-11-29T10:45:53.474Z,12.32
2022-11-29T10:48:31.780Z,13.73
2022-11-29T10:51:00.020Z,13.48
2022-11-29T10:53:31.283Z,13.15
2022-11-29T10:56:12.502Z,13.57
2022-11-29T10:58:58.155Z,13.57
2022-11-29T11:01:28.234Z,13.52
2022-11-29T11:03:57.635Z,13.55
2022-11-29T11:06:25.621Z,14.15
2022-11-29T11:08:57.666Z,13.52
2022-11-29T11:11:32.967Z,13.40
2022-11-29T11:14:19.694Z,14.30
2022-11-29T11:16:46.701Z,17.15
2022-11-29T11:19:43.534Z,14.05
2022-11-29T11:22:21.569Z,13.25
2022-11-29T11:25:06.381Z,13.93
2022-11-29T11:27:35.282Z,12.27
2022-11-29T11:30:06.027Z,11.07
2022-11-29T11:32:32.902Z,9.13
2022-11-29T11:35:02.081Z,8.45
2022-11-29T11:37:31.574Z,8.80
2022-11-29T11:40:18.379Z,10.82
2022-11-29T11:42:45.465Z,11.73
2022-11-29T11:45:12.607Z,12.38
2022-11-29T11:47:52.335Z,12.43
2022-11-29T11:50:32.763Z,12.25
2022-11-29T11:53:05.644Z,12.05
2022-11-29T11:55:34.822Z,10.82
2022-11-29T11:58:14.546Z,12.18
2022-11-29T12:01:05.657Z,12.55
2022-11-29T12:03:32.927Z,11.70
2022-11-29T12:06:27.093Z,11.70
2022-11-29T12:08:59.288Z,11.98
2022-11-29T12:11:27.360Z,11.90
2022-11-29T12:13:58.142Z,11.85
2022-11-29T12:16:36.180Z,10.13
2022-11-29T12:19:18.992Z,9.80
2022-11-29T12:21:52.655Z,11.38
2022-11-29T12:24:25.839Z,11.45
2022-11-29T12:26:57.945Z,11.23
2022-11-29T12:29:28.618Z,12.10
2022-11-29T12:32:14.681Z,12.68
2022-11-29T12:37:27.251Z,12.05
2022-11-29T12:40:01.408Z,11.57
2022-11-29T12:42:42.122Z,10.98
2022-11-29T12:45:39.801Z,11.38
2022-11-29T12:48:33.805Z,10.63
2022-11-29T12:51:22.126Z,11.05
2022-11-29T12:53:57.949Z,10.73
2022-11-29T12:56:36.773Z,10.00
2022-11-29T12:59:28.616Z,10.82
2022-11-29T13:02:11.895Z,12.02
2022-11-29T13:04:46.545Z,11.73
2022-11-29T13:07:21.051Z,12.43
2022-11-29T13:10:17.657Z,11.93
2022-11-29T13:12:51.479Z,11.88
2022-11-29T13:15:49.914Z,11.80
2022-11-29T13:18:28.805Z,11.55
2022-11-29T13:21:10.918Z,11.82
2022-11-29T13:24:09.377Z,10.75
2022-11-29T13:26:39.050Z,10.57
2022-11-29T13:29:07.796Z,11.45
2022-11-29T13:31:35.283Z,11.77
2022-11-29T13:34:14.834Z,12.63
2022-11-29T13:36:52.332Z,12.02
2022-11-29T13:39:28.374Z,10.93
2022-11-29T13:42:13.893Z,13.00
2022-11-29T13:44:49.163Z,11.38
2022-11-29T13:47:18.539Z,11.65
2022-11-29T13:50:04.935Z,12.05
2022-11-29T13:52:42.719Z,10.85
2022-11-29T13:55:12.691Z,11.07
2022-11-29T13:58:14.822Z,10.60
2022-11-29T14:00:42.693Z,11.43
2022-11-29T14:03:25.906Z,11.45
2022-11-29T14:06:02.026Z,11.50
2022-11-29T14:08:42.158Z,12.02
2022-11-29T14:11:14.736Z,11.48
2022-11-29T14:13:41.496Z,11.25
2022-11-29T14:16:35.699Z,11.32
2022-11-29T14:19:08.495Z,11.93
2022-11-29T14:22:03.294Z,12.68
2022-11-29T14:24:35.870Z,11.38
2022-11-29T14:27:10.058Z,11.60
2022-11-29T14:29:55.008Z,12.30
2022-11-29T14:32:51.706Z,11.75
2022-11-29T14:35:39.707Z,12.02
2022-11-29T14:38:45.991Z,13.38
2022-11-29T14:41:47.756Z,14.48
2022-11-29T14:44:17.342Z,14.82
2022-11-29T14:46:44.997Z,15.15
2022-11-29T14:49:32.023Z,16.85
2022-11-29T14:52:16.644Z,17.75
2022-11-29T14:55:04.138Z,18.30
2022-11-29T14:57:49.827Z,18.83
2022-11-29T15:00:34.885Z,18.38
2022-11-29T15:03:05.302Z,20.13
2022-11-29T15:05:39.243Z,19.70
2022-11-29T15:08:19.102Z,17.92
2022-11-29T15:10:57.203Z,19.73
2022-11-29T15:13:31.724Z,19.98
2022-11-29T15:16:32.650Z,19.83
2022-11-29T15:18:59.464Z,19.55
2022-11-29T15:21:38.300Z,20.27
2022-11-29T15:24:13.491Z,21.33
2022-11-29T15:27:01.609Z,22.08
2022-11-29T15:29:30.355Z,19.33
2022-11-29T15:32:03.912Z,19.60
2022-11-29T15:34:36.920Z,20.23
2022-11-29T15:37:04.709Z,21.00
2022-11-29T15:39:34.725Z,20.55
2022-11-29T15:42:13.282Z,19.95
2022-11-29T15:44:47.090Z,20.98
2022-11-29T15:47:25.262Z,19.50
2022-11-29T15:49:53.658Z,19.35
2022-11-29T15:52:34.097Z,20.77
2022-11-29T15:55:11.053Z,18.83
2022-11-29T15:57:48.738Z,19.77
2022-11-29T16:00:23.151Z,19.80
2022-11-29T16:02:55.742Z,19.23
2022-11-29T16:05:35.718Z,18.50
2022-11-29T16:08:13.610Z,19.58
2022-11-29T16:10:50.413Z,18.60
2022-11-29T16:13:41.327Z,18.75
2022-11-29T16:16:16.913Z,18.83
2022-11-29T16:21:28.921Z,18.35
2022-11-29T16:23:56.730Z,18.55
2022-11-29T16:26:26.139Z,18.58
2022-11-29T16:28:54.730Z,18.60
2022-11-29T16:31:25.167Z,17.85
2022-11-29T16:33:52.741Z,17.70
2022-11-29T16:36:26.744Z,16.92
2022-11-29T16:38:58.116Z,17.05
2022-11-29T16:41:32.466Z,17.15
2022-11-29T16:44:03.195Z,16.42
2022-11-29T16:46:35.613Z,17.95
2022-11-29T16:49:24.557Z,17.00
2022-11-29T16:51:52.449Z,15.88
2022-11-29T16:54:21.173Z,17.60
2022-11-29T16:56:48.573Z,15.98
2022-11-29T16:59:20.845Z,16.95
2022-11-29T17:01:54.116Z,16.70
2022-11-29T17:04:23.815Z,16.05
2022-11-29T17:06:52.852Z,16.50
2022-11-29T17:09:27.904Z,16.05
2022-11-29T17:11:55.544Z,16.90
2022-11-29T17:14:22.425Z,16.23
2022-11-29T17:16:49.970Z,15.98
2022-11-29T17:19:17.581Z,15.10
2022-11-29T17:21:44.400Z,15.52
2022-11-29T17:24:17.411Z,14.50
2022-11-29T17:26:44.703Z,15.02
2022-11-29T17:29:13.202Z,14.48
2022-11-29T17:31:41.393Z,14.52
2022-11-29T17:34:08.090Z,14.35
2022-11-29T17:36:34.821Z,13.82
2022-11-29T17:39:02.712Z,15.57
2022-11-29T17:41:30.531Z,15.85
2022-11-29T17:43:57.842Z,15.65
2022-11-29T17:46:30.739Z,16.55
2022-11-29T17:49:00.250Z,14.82
2022-11-29T17:54:14.409Z,16.25
2022-11-29T17:56:41.187Z,15.90
2022-11-29T17:59:07.930Z,17.92
2022-11-29T18:01:36.443Z,17.83
2022-11-29T18:04:05.828Z,18.13
2022-11-29T18:06:38.762Z,18.70
2022-11-29T18:09:07.609Z,19.08
2022-11-29T18:11:46.883Z,20.17
2022-11-29T18:14:18.368Z,18.35
2022-11-29T18:16:45.611Z,20.85
2022-11-29T18:19:14.875Z,18.60
2022-11-29T18:21:41.710Z,20.80
2022-11-29T18:24:09.101Z,19.15
2022-11-29T18:26:36.634Z,19.75
2022-11-29T18:29:04.560Z,18.63
2022-11-29T18:31:34.717Z,20.17
2022-11-29T18:34:03.707Z,18.50
2022-11-29T18:36:32.774Z,19.80
2022-11-29T18:39:05.337Z,22.10
2022-11-29T18:41:32.714Z,19.88
2022-11-29T18:44:05.732Z,18.70
2022-11-29T18:46:33.269Z,19.92
2022-11-29T18:49:03.499Z,20.13
2022-11-29T18:51:31.155Z,20.10
2022-11-29T18:53:59.182Z,20.73
2022-11-29T18:56:28.178Z,21.55
2022-11-29T18:58:58.619Z,19.98
2022-11-29T19:01:27.690Z,19.75
2022-11-29T19:03:57.242Z,20.63
2022-11-29T19:06:38.894Z,19.73
2022-11-29T19:09:11.186Z,19.05
2022-11-29T19:11:38.006Z,20.05
2022-11-29T19:14:11.194Z,20.48
2022-11-29T19:16:39.976Z,21.35
2022-11-29T19:19:07.031Z,19.85
2022-11-29T19:21:37.104Z,20.52
2022-11-29T19:24:07.813Z,20.05
2022-11-29T19:26:34.785Z,19.73
2022-11-29T19:29:01.830Z,19.25
2022-11-29T19:31:29.155Z,19.88
2022-11-29T19:33:56.887Z,19.42
2022-11-29T19:36:25.916Z,20.75
2022-11-29T19:38:54.545Z,21.10
2022-11-29T19:41:29.708Z,19.90
2022-11-29T19:43:58.357Z,21.75
2022-11-29T19:46:29.645Z,20.48
2022-11-29T19:48:58.393Z,21.00
2022-11-29T19:51:27.151Z,20.63
2022-11-29T19:53:55.830Z,20.48
2022-11-29T19:56:23.318Z,20.10
2022-11-29T19:58:50.815Z,21.55
2022-11-29T20:01:24.290Z,21.27
2022-11-29T20:03:52.686Z,20.50
2022-11-29T20:06:19.697Z,20.98
2022-11-29T20:08:47.213Z,21.40
2022-11-29T20:11:17.216Z,20.85
2022-11-29T20:13:47.578Z,21.20
2022-11-29T20:16:17.115Z,21.27
2022-11-29T20:18:50.579Z,20.60
2022-11-29T20:21:42.068Z,20.42
2022-11-29T20:24:09.136Z,20.83
2022-11-29T20:26:38.018Z,21.73
2022-11-29T20:29:06.997Z,21.27
2022-11-29T20:31:35.714Z,20.85
2022-11-29T20:34:03.034Z,21.48
2022-11-29T20:36:58.131Z,22.45
2022-11-29T20:39:34.042Z,22.30
2022-11-29T20:42:27.085Z,21.58
2022-11-29T20:44:56.320Z,21.85
2022-11-29T20:47:27.613Z,24.02
2022-11-29T20:49:54.796Z,23.33
2022-11-29T20:52:24.630Z,22.35
2022-11-29T20:54:51.370Z,22.70
2022-11-29T20:57:18.159Z,23.30
2022-11-29T20:59:45.124Z,22.67
2022-11-29T21:02:12.050Z,22.88
2022-11-29T21:04:38.761Z,23.52
2022-11-29T21:07:05.514Z,24.85
2022-11-29T21:09:32.228Z,25.17
2022-11-29T21:11:59.418Z,25.25
2022-11-29T21:14:26.310Z,26.15
2022-11-29T21:16:53.257Z,27.58
2022-11-29T21:19:23.997Z,27.27
2022-11-29T21:22:06.059Z,27.73
2022-11-29T21:24:48.034Z,27.65
2022-11-29T21:27:20.327Z,27.52
2022-11-29T21:29:47.326Z,27.67
2022-11-29T21:32:22.086Z,26.85
2022-11-29T21:34:48.998Z,25.00
2022-11-29T21:37:18.585Z,25.60
2022-11-29T21:39:46.252Z,25.95
2022-11-29T21:42:13.042Z,26.58
2022-11-29T21:44:39.824Z,26.65
2022-11-29T21:47:06.645Z,27.83
2022-11-29T21:49:33.538Z,27.20
2022-11-29T21:52:01.147Z,27.73
2022-11-29T21:54:29.173Z,27.33
2022-11-29T21:56:56.304Z,28.23
2022-11-29T21:59:24.873Z,27.88
2022-11-29T22:01:52.605Z,28.95
2022-11-29T22:04:19.912Z,30.45
2022-11-29T22:06:47.341Z,28.52
2022-11-29T22:09:14.260Z,29.25
2022-11-29T22:11:41.094Z,31.15
2022-11-29T22:14:18.051Z,31.42
2022-11-29T22:16:50.792Z,29.63
2022-11-29T22:19:26.678Z,29.23
2022-11-29T22:21:55.742Z,31.05
2022-11-29T22:24:24.948Z,30.42
2022-11-29T22:26:52.963Z,30.23
2022-11-29T22:29:20.596Z,30.95
2022-11-29T22:31:50.074Z,30.63
2022-11-29T22:34:17.035Z,29.73
2022-11-29T22:36:43.807Z,30.65
2022-11-29T22:39:10.647Z,30.00
2022-11-29T22:41:38.830Z,30.15
2022-11-29T22:44:06.028Z,31.50
2022-11-29T22:46:35.657Z,32.30
2022-11-29T22:49:03.191Z,30.98
2022-11-29T22:51:32.683Z,29.33
2022-11-29T22:54:01.767Z,33.72
2022-11-29T22:56:31.134Z,31.77
2022-11-29T22:58:58.012Z,33.22
2022-11-29T23:01:27.212Z,30.75
2022-11-29T23:03:59.278Z,33.33
2022-11-29T23:06:32.113Z,31.88
2022-11-29T23:09:04.580Z,31.88
2022-11-29T23:11:32.090Z,33.40
2022-11-29T23:13:58.874Z,31.75
2022-11-29T23:16:28.976Z,33.45
2022-11-29T23:18:58.268Z,33.13
2022-11-29T23:21:30.737Z,32.50
2022-11-29T23:24:00.007Z,31.30
2022-11-29T23:26:29.416Z,32.22
2022-11-29T23:28:56.708Z,33.05
2022-11-29T23:31:24.800Z,34.45
2022-11-29T23:33:51.680Z,33.97
2022-11-29T23:36:18.987Z,33.45
2022-11-29T23:38:45.707Z,32.90
2022-11-29T23:41:12.804Z,33.55
2022-11-29T23:43:41.086Z,31.65
2022-11-29T23:46:14.392Z,34.17
2022-11-29T23:48:42.161Z,33.83
2022-11-29T23:51:09.852Z,34.65
2022-11-29T23:53:37.940Z,35.05
2022-11-29T23:56:07.857Z,35.38
2022-11-29T23:58:34.968Z,33.55
